Sarfaq Ittuk — OWDD — position and weather

sailwx.info

Track history (hours):
 
Tides and Currents Weather Stations Pressure Air Temp Water Temp Dewpoint Dewpoint Depression Visibility Wind Speed Wind Dir Waves Ship Positions

Sarfaq Ittuk

Last reported at 2017-Jun-24 14:39 UTC. Time now 2017-Jun-26 17:18 UTC.
Position N 65°54' W 053°36'.

Length 73 m; beam 11.1 m; draft 3.7 m.

Type: Passenger vessel. MMSI: 331037000.

Date/timePositionNaut miles runAvg speedWind from/ knotsBaromVisibWave heightAir tempDewpointWater temp
2017-Jun-24 14:39N 65°54' W 053°36'210.5
2017-Jun-24 14:27N 65°53' W 053°33'7 4.8
2017-Jun-24 13:01N 65°49' W 053°19'0 9.9
2017-Jun-24 13:01N 65°49' W 053°19'24 8.9
2017-Jun-24 10:18N 65°27' W 052°52'3 8.9
2017-Jun-24 10:00N 65°25' W 052°54'0 0.0
2017-Jun-24 09:30N 65°25' W 052°54'0 0.0
2017-Jun-24 09:00N 65°25' W 052°54'2 4.0
2017-Jun-24 08:30N 65°23' W 052°51'5 9.6
2017-Jun-24 08:00N 65°18' W 052°51'5 9.3
2017-Jun-24 07:30N 65°14' W 052°51'5 9.4
2017-Jun-24 07:00N 65°09' W 052°51'5 9.6
2017-Jun-24 06:30N 65°04' W 052°48'5 9.6
2017-Jun-24 06:00N 64°59' W 052°46'511.0
2017-Jun-24 05:30N 64°54' W 052°44'510.6
2017-Jun-24 05:00N 64°49' W 052°42'510.5
2017-Jun-24 04:30N 64°44' W 052°39'510.6
2017-Jun-24 04:00N 64°39' W 052°37'510.4
2017-Jun-24 03:30N 64°33' W 052°35'510.5
2017-Jun-24 03:00N 64°28' W 052°32'510.5
2017-Jun-24 02:30N 64°23' W 052°30'510.3
2017-Jun-24 02:01N 64°18' W 052°27'510.3
2017-Jun-24 01:30N 64°13' W 052°24'510.1
2017-Jun-24 01:00N 64°08' W 052°19'510.9
2017-Jun-24 00:30N 64°04' W 052°11'510.3
2017-Jun-24 00:00N 64°06' W 052°00'611.3
2017-Jun-23 23:31N 64°08' W 051°49'3 6.1
2017-Jun-23 23:00N 64°10' W 051°43'0 0.0
2017-Jun-23 22:31N 64°10' W 051°43'0 0.0
2017-Jun-23 22:00N 64°10' W 051°43'0 0.0
2017-Jun-23 21:30N 64°10' W 051°43'0 0.0
2017-Jun-23 21:00N 64°10' W 051°43'0 0.0
2017-Jun-23 20:30N 64°10' W 051°43'0 0.0
2017-Jun-23 20:00N 64°10' W 051°43'0 0.0
2017-Jun-23 19:30N 64°10' W 051°43'0 0.0
2017-Jun-23 19:01N 64°10' W 051°43'0 0.0
2017-Jun-23 18:30N 64°10' W 051°43'0 0.0
2017-Jun-23 18:01N 64°10' W 051°43'0 0.0
2017-Jun-23 17:30N 64°10' W 051°43'0 0.0
2017-Jun-23 17:00N 64°10' W 051°43'3 5.4
2017-Jun-23 16:30N 64°08' W 051°41'611.3
2017-Jun-23 16:00N 64°02' W 051°39'510.6
2017-Jun-23 15:31N 63°57' W 051°37'510.4
2017-Jun-23 15:00N 63°52' W 051°34'1211.5
2017-Jun-23 14:00N 63°41' W 051°38'611.3
2017-Jun-23 13:30N 63°35' W 051°38'611.3
2017-Jun-23 13:00N 63°29' W 051°34'  
2017-Jun-20 20:08N 63°26' W 051°31'311.7
2017-Jun-20 19:53N 63°29' W 051°33'1411.4
2017-Jun-20 18:39N 63°42' W 051°38'211.5
2017-Jun-20 18:30N 63°44' W 051°36'611.7
2017-Jun-20 18:00N 63°50' W 051°35'611.6
2017-Jun-20 17:30N 63°56' W 051°34'611.4
2017-Jun-20 17:00N 64°00' W 051°41'611.3
2017-Jun-20 16:30N 64°06' W 051°39'5 9.4
2017-Jun-20 16:00N 64°10' W 051°43'0 0.0
2017-Jun-20 15:30N 64°10' W 051°43'0 0.0
2017-Jun-20 15:00N 64°10' W 051°43'0 0.0
2017-Jun-20 14:30N 64°10' W 051°43'0 0.0
2017-Jun-20 13:30N 64°10' W 051°43'0 0.0
2017-Jun-20 13:00N 64°10' W 051°43'0 0.0
2017-Jun-20 12:30N 64°10' W 051°43'0 0.0
2017-Jun-20 12:00N 64°10' W 051°43'0 0.0
2017-Jun-20 11:30N 64°10' W 051°43'0 0.0
2017-Jun-20 11:00N 64°10' W 051°43'0 0.0
2017-Jun-20 10:31N 64°10' W 051°43'0 0.0
2017-Jun-20 10:00N 64°10' W 051°43'0 0.0
2017-Jun-20 09:30N 64°10' W 051°43'2 4.1
2017-Jun-20 09:00N 64°09' W 051°47'5 9.5
2017-Jun-20 08:30N 64°07' W 051°56'4 9.0
2017-Jun-20 08:00N 64°04' W 052°05'4 8.7
2017-Jun-20 07:31N 64°06' W 052°14'611.9
2017-Jun-20 07:00N 64°11' W 052°22'612.0
2017-Jun-20 06:30N 64°17' W 052°26'612.0
2017-Jun-20 06:01N 64°23' W 052°29'611.9
2017-Jun-20 05:31N 64°28' W 052°32'612.0
2017-Jun-20 05:00N 64°34' W 052°35'612.0
2017-Jun-20 04:31N 64°40' W 052°38'611.9
2017-Jun-20 04:00N 64°46' W 052°40'612.2
2017-Jun-20 03:30N 64°52' W 052°43'612.0
2017-Jun-20 03:00N 64°58' W 052°46'612.0
2017-Jun-20 02:30N 65°04' W 052°48'612.3
2017-Jun-20 02:00N 65°10' W 052°51'34 6.4
2017-Jun-19 20:44N 65°42' W 053°20'411.8
2017-Jun-19 20:23N 65°46' W 053°19'  
2017-Jun-17 07:03N 65°09' W 052°50'110.5
2017-Jun-17 07:00N 65°08' W 052°50'510.2
2017-Jun-17 06:30N 65°03' W 052°48'5 9.9
2017-Jun-17 06:00N 64°58' W 052°46'5 9.6
2017-Jun-17 05:31N 64°54' W 052°44'5 9.7
2017-Jun-17 05:00N 64°49' W 052°41'5 9.6
2017-Jun-17 04:30N 64°44' W 052°39'5 9.5
2017-Jun-17 04:00N 64°39' W 052°37'5 9.7
2017-Jun-17 03:30N 64°35' W 052°35'510.0
2017-Jun-17 03:00N 64°30' W 052°33'510.1
2017-Jun-17 02:30N 64°25' W 052°31'5 9.9
2017-Jun-17 02:00N 64°20' W 052°28'5 9.9
2017-Jun-17 01:30N 64°15' W 052°25'510.2
2017-Jun-17 01:00N 64°10' W 052°22'510.1
2017-Jun-17 00:30N 64°06' W 052°15'510.1
2017-Jun-17 00:00N 64°05' W 052°04'511.0
2017-Jun-16 23:31N 64°08' W 051°52'5 9.6
2017-Jun-16 23:00N 64°10' W 051°43'0 0.0
2017-Jun-16 22:30N 64°10' W 051°43'0 0.0
2017-Jun-16 22:01N 64°10' W 051°43'0 0.0
2017-Jun-16 21:30N 64°10' W 051°43'0 0.0
2017-Jun-16 21:01N 64°10' W 051°43'0 0.0
2017-Jun-16 20:30N 64°10' W 051°43'0 0.0
2017-Jun-16 20:00N 64°10' W 051°43'0 0.0
2017-Jun-16 19:30N 64°10' W 051°43'0 0.0
2017-Jun-16 19:00N 64°10' W 051°43'0 0.0
2017-Jun-16 18:30N 64°10' W 051°43'0 0.0
2017-Jun-16 18:00N 64°10' W 051°43'0 0.0
2017-Jun-16 17:31N 64°10' W 051°43'0 0.0
2017-Jun-16 17:00N 64°10' W 051°43'2 3.5
2017-Jun-16 16:30N 64°09' W 051°42'611.2
2017-Jun-16 16:00N 64°03' W 051°38'510.8
2017-Jun-16 15:30N 63°58' W 051°38'611.8
2017-Jun-16 15:00N 63°52' W 051°34'612.4
2017-Jun-16 14:30N 63°46' W 051°35'1611.0
2017-Jun-16 13:02N 63°30' W 051°35'  
Track history (hours):
 
Tides and Currents Weather Stations Pressure Air Temp Water Temp Dewpoint Dewpoint Depression Visibility Wind Speed Wind Dir Waves Ship Positions

Sarfaq Ittuk

Last reported at 2017-Jun-24 14:39 UTC. Time now 2017-Jun-26 17:18 UTC.
Position N 65°54' W 053°36'.

Length 73 m; beam 11.1 m; draft 3.7 m.

Type: Passenger vessel. MMSI: 331037000.

Date/timePositionNaut miles runAvg speedWind from/ knotsBaromVisibWave heightAir tempDewpointWater temp
2017-Jun-24 14:39N 65°54' W 053°36'210.5
2017-Jun-24 14:27N 65°53' W 053°33'7 4.8
2017-Jun-24 13:01N 65°49' W 053°19'0 9.9
2017-Jun-24 13:01N 65°49' W 053°19'24 8.9
2017-Jun-24 10:18N 65°27' W 052°52'3 8.9
2017-Jun-24 10:00N 65°25' W 052°54'0 0.0
2017-Jun-24 09:30N 65°25' W 052°54'0 0.0
2017-Jun-24 09:00N 65°25' W 052°54'2 4.0
2017-Jun-24 08:30N 65°23' W 052°51'5 9.6
2017-Jun-24 08:00N 65°18' W 052°51'5 9.3
2017-Jun-24 07:30N 65°14' W 052°51'5 9.4
2017-Jun-24 07:00N 65°09' W 052°51'5 9.6
2017-Jun-24 06:30N 65°04' W 052°48'5 9.6
2017-Jun-24 06:00N 64°59' W 052°46'511.0
2017-Jun-24 05:30N 64°54' W 052°44'510.6
2017-Jun-24 05:00N 64°49' W 052°42'510.5
2017-Jun-24 04:30N 64°44' W 052°39'510.6
2017-Jun-24 04:00N 64°39' W 052°37'510.4
2017-Jun-24 03:30N 64°33' W 052°35'510.5
2017-Jun-24 03:00N 64°28' W 052°32'510.5
2017-Jun-24 02:30N 64°23' W 052°30'510.3
2017-Jun-24 02:01N 64°18' W 052°27'510.3
2017-Jun-24 01:30N 64°13' W 052°24'510.1
2017-Jun-24 01:00N 64°08' W 052°19'510.9
2017-Jun-24 00:30N 64°04' W 052°11'510.3
2017-Jun-24 00:00N 64°06' W 052°00'611.3
2017-Jun-23 23:31N 64°08' W 051°49'3 6.1
2017-Jun-23 23:00N 64°10' W 051°43'0 0.0
2017-Jun-23 22:31N 64°10' W 051°43'0 0.0
2017-Jun-23 22:00N 64°10' W 051°43'0 0.0
2017-Jun-23 21:30N 64°10' W 051°43'0 0.0
2017-Jun-23 21:00N 64°10' W 051°43'0 0.0
2017-Jun-23 20:30N 64°10' W 051°43'0 0.0
2017-Jun-23 20:00N 64°10' W 051°43'0 0.0
2017-Jun-23 19:30N 64°10' W 051°43'0 0.0
2017-Jun-23 19:01N 64°10' W 051°43'0 0.0
2017-Jun-23 18:30N 64°10' W 051°43'0 0.0
2017-Jun-23 18:01N 64°10' W 051°43'0 0.0
2017-Jun-23 17:30N 64°10' W 051°43'0 0.0
2017-Jun-23 17:00N 64°10' W 051°43'3 5.4
2017-Jun-23 16:30N 64°08' W 051°41'611.3
2017-Jun-23 16:00N 64°02' W 051°39'510.6
2017-Jun-23 15:31N 63°57' W 051°37'510.4
2017-Jun-23 15:00N 63°52' W 051°34'1211.5
2017-Jun-23 14:00N 63°41' W 051°38'611.3
2017-Jun-23 13:30N 63°35' W 051°38'611.3
2017-Jun-23 13:00N 63°29' W 051°34'  
2017-Jun-20 20:08N 63°26' W 051°31'311.7
2017-Jun-20 19:53N 63°29' W 051°33'1411.4
2017-Jun-20 18:39N 63°42' W 051°38'211.5
2017-Jun-20 18:30N 63°44' W 051°36'611.7
2017-Jun-20 18:00N 63°50' W 051°35'611.6
2017-Jun-20 17:30N 63°56' W 051°34'611.4
2017-Jun-20 17:00N 64°00' W 051°41'611.3
2017-Jun-20 16:30N 64°06' W 051°39'5 9.4
2017-Jun-20 16:00N 64°10' W 051°43'0 0.0
2017-Jun-20 15:30N 64°10' W 051°43'0 0.0
2017-Jun-20 15:00N 64°10' W 051°43'0 0.0
2017-Jun-20 14:30N 64°10' W 051°43'0 0.0
2017-Jun-20 13:30N 64°10' W 051°43'0 0.0
2017-Jun-20 13:00N 64°10' W 051°43'0 0.0
2017-Jun-20 12:30N 64°10' W 051°43'0 0.0
2017-Jun-20 12:00N 64°10' W 051°43'0 0.0
2017-Jun-20 11:30N 64°10' W 051°43'0 0.0
2017-Jun-20 11:00N 64°10' W 051°43'0 0.0
2017-Jun-20 10:31N 64°10' W 051°43'0 0.0
2017-Jun-20 10:00N 64°10' W 051°43'0 0.0
2017-Jun-20 09:30N 64°10' W 051°43'2 4.1
2017-Jun-20 09:00N 64°09' W 051°47'5 9.5
2017-Jun-20 08:30N 64°07' W 051°56'4 9.0
2017-Jun-20 08:00N 64°04' W 052°05'4 8.7
2017-Jun-20 07:31N 64°06' W 052°14'611.9
2017-Jun-20 07:00N 64°11' W 052°22'612.0
2017-Jun-20 06:30N 64°17' W 052°26'612.0
2017-Jun-20 06:01N 64°23' W 052°29'611.9
2017-Jun-20 05:31N 64°28' W 052°32'612.0
2017-Jun-20 05:00N 64°34' W 052°35'612.0
2017-Jun-20 04:31N 64°40' W 052°38'611.9
2017-Jun-20 04:00N 64°46' W 052°40'612.2
2017-Jun-20 03:30N 64°52' W 052°43'612.0
2017-Jun-20 03:00N 64°58' W 052°46'612.0
2017-Jun-20 02:30N 65°04' W 052°48'612.3
2017-Jun-20 02:00N 65°10' W 052°51'34 6.4
2017-Jun-19 20:44N 65°42' W 053°20'411.8
2017-Jun-19 20:23N 65°46' W 053°19'  
2017-Jun-17 07:03N 65°09' W 052°50'110.5
2017-Jun-17 07:00N 65°08' W 052°50'510.2
2017-Jun-17 06:30N 65°03' W 052°48'5 9.9
2017-Jun-17 06:00N 64°58' W 052°46'5 9.6
2017-Jun-17 05:31N 64°54' W 052°44'5 9.7
2017-Jun-17 05:00N 64°49' W 052°41'5 9.6
2017-Jun-17 04:30N 64°44' W 052°39'5 9.5
2017-Jun-17 04:00N 64°39' W 052°37'5 9.7
2017-Jun-17 03:30N 64°35' W 052°35'510.0
2017-Jun-17 03:00N 64°30' W 052°33'510.1
2017-Jun-17 02:30N 64°25' W 052°31'5 9.9
2017-Jun-17 02:00N 64°20' W 052°28'5 9.9
2017-Jun-17 01:30N 64°15' W 052°25'510.2
2017-Jun-17 01:00N 64°10' W 052°22'510.1
2017-Jun-17 00:30N 64°06' W 052°15'510.1
2017-Jun-17 00:00N 64°05' W 052°04'511.0
2017-Jun-16 23:31N 64°08' W 051°52'5 9.6
2017-Jun-16 23:00N 64°10' W 051°43'0 0.0
2017-Jun-16 22:30N 64°10' W 051°43'0 0.0
2017-Jun-16 22:01N 64°10' W 051°43'0 0.0
2017-Jun-16 21:30N 64°10' W 051°43'0 0.0
2017-Jun-16 21:01N 64°10' W 051°43'0 0.0
2017-Jun-16 20:30N 64°10' W 051°43'0 0.0
2017-Jun-16 20:00N 64°10' W 051°43'0 0.0
2017-Jun-16 19:30N 64°10' W 051°43'0 0.0
2017-Jun-16 19:00N 64°10' W 051°43'0 0.0
2017-Jun-16 18:30N 64°10' W 051°43'0 0.0
2017-Jun-16 18:00N 64°10' W 051°43'0 0.0
2017-Jun-16 17:31N 64°10' W 051°43'0 0.0
2017-Jun-16 17:00N 64°10' W 051°43'2 3.5
2017-Jun-16 16:30N 64°09' W 051°42'611.2
2017-Jun-16 16:00N 64°03' W 051°38'510.8
2017-Jun-16 15:30N 63°58' W 051°38'611.8
2017-Jun-16 15:00N 63°52' W 051°34'612.4
2017-Jun-16 14:30N 63°46' W 051°35'1611.0
2017-Jun-16 13:02N 63°30' W 051°35'  

Dump ship's entire track history